sensor_id;sensor_type;location;lat;lon;timestamp;P1;durP1;ratioP1;P2;durP2;ratioP2
16407;SDS011;8313;49.894;8.084;2022-12-10T00:02:09;7.73;;;4.87;;
16407;SDS011;8313;49.894;8.084;2022-12-10T00:04:35;9.20;;;5.37;;
16407;SDS011;8313;49.894;8.084;2022-12-10T00:07:00;9.37;;;5.97;;
16407;SDS011;8313;49.894;8.084;2022-12-10T00:09:26;12.00;;;4.60;;
16407;SDS011;8313;49.894;8.084;2022-12-10T00:11:52;8.07;;;4.90;;
16407;SDS011;8313;49.894;8.084;2022-12-10T00:14:18;9.63;;;5.57;;
16407;SDS011;8313;49.894;8.084;2022-12-10T00:16:43;6.50;;;4.27;;
16407;SDS011;8313;49.894;8.084;2022-12-10T00:19:09;9.50;;;5.93;;
16407;SDS011;8313;49.894;8.084;2022-12-10T00:21:35;8.77;;;5.83;;
16407;SDS011;8313;49.894;8.084;2022-12-10T00:24:02;6.80;;;5.00;;
16407;SDS011;8313;49.894;8.084;2022-12-10T00:26:29;9.33;;;5.07;;
16407;SDS011;8313;49.894;8.084;2022-12-10T00:28:57;8.90;;;5.83;;
16407;SDS011;8313;49.894;8.084;2022-12-10T00:31:29;6.60;;;5.30;;
16407;SDS011;8313;49.894;8.084;2022-12-10T00:33:58;7.83;;;4.73;;
16407;SDS011;8313;49.894;8.084;2022-12-10T00:36:27;13.17;;;6.10;;
16407;SDS011;8313;49.894;8.084;2022-12-10T00:38:54;9.67;;;5.50;;
16407;SDS011;8313;49.894;8.084;2022-12-10T00:41:20;11.47;;;6.03;;
16407;SDS011;8313;49.894;8.084;2022-12-10T00:43:47;9.50;;;5.80;;
16407;SDS011;8313;49.894;8.084;2022-12-10T00:46:14;11.27;;;5.20;;
16407;SDS011;8313;49.894;8.084;2022-12-10T00:48:41;12.00;;;5.73;;
16407;SDS011;8313;49.894;8.084;2022-12-10T00:53:37;15.07;;;7.17;;
16407;SDS011;8313;49.894;8.084;2022-12-10T00:56:05;6.37;;;4.87;;
16407;SDS011;8313;49.894;8.084;2022-12-10T00:58:32;9.87;;;5.87;;
16407;SDS011;8313;49.894;8.084;2022-12-10T01:01:09;10.00;;;6.07;;
16407;SDS011;8313;49.894;8.084;2022-12-10T01:03:35;9.20;;;5.10;;
16407;SDS011;8313;49.894;8.084;2022-12-10T01:09:01;8.90;;;5.50;;
16407;SDS011;8313;49.894;8.084;2022-12-10T01:11:30;10.30;;;5.03;;
16407;SDS011;8313;49.894;8.084;2022-12-10T01:13:58;9.27;;;5.93;;
16407;SDS011;8313;49.894;8.084;2022-12-10T01:16:24;11.40;;;6.40;;
16407;SDS011;8313;49.894;8.084;2022-12-10T01:18:54;8.70;;;5.37;;
16407;SDS011;8313;49.894;8.084;2022-12-10T01:21:21;8.17;;;5.73;;
16407;SDS011;8313;49.894;8.084;2022-12-10T01:23:49;6.27;;;4.70;;
16407;SDS011;8313;49.894;8.084;2022-12-10T01:26:16;6.80;;;4.80;;
16407;SDS011;8313;49.894;8.084;2022-12-10T01:28:47;7.83;;;4.60;;
16407;SDS011;8313;49.894;8.084;2022-12-10T01:31:14;6.97;;;4.53;;
16407;SDS011;8313;49.894;8.084;2022-12-10T01:33:42;8.17;;;5.60;;
16407;SDS011;8313;49.894;8.084;2022-12-10T01:36:09;9.73;;;5.90;;
16407;SDS011;8313;49.894;8.084;2022-12-10T01:38:42;7.20;;;5.50;;
16407;SDS011;8313;49.894;8.084;2022-12-10T01:41:10;7.53;;;5.60;;
16407;SDS011;8313;49.894;8.084;2022-12-10T01:46:24;11.13;;;5.53;;
16407;SDS011;8313;49.894;8.084;2022-12-10T01:48:52;8.10;;;5.80;;
16407;SDS011;8313;49.894;8.084;2022-12-10T01:51:18;8.83;;;5.83;;
16407;SDS011;8313;49.894;8.084;2022-12-10T01:53:43;8.83;;;5.83;;
16407;SDS011;8313;49.894;8.084;2022-12-10T01:56:11;9.00;;;5.83;;
16407;SDS011;8313;49.894;8.084;2022-12-10T01:58:37;11.77;;;5.93;;
16407;SDS011;8313;49.894;8.084;2022-12-10T02:01:08;11.80;;;6.50;;
16407;SDS011;8313;49.894;8.084;2022-12-10T02:06:42;10.30;;;4.70;;
16407;SDS011;8313;49.894;8.084;2022-12-10T02:09:14;10.87;;;6.60;;
16407;SDS011;8313;49.894;8.084;2022-12-10T02:11:54;12.70;;;5.80;;
16407;SDS011;8313;49.894;8.084;2022-12-10T02:17:16;9.97;;;5.70;;
16407;SDS011;8313;49.894;8.084;2022-12-10T02:25:50;10.10;;;5.50;;
16407;SDS011;8313;49.894;8.084;2022-12-10T02:28:47;8.60;;;5.00;;
16407;SDS011;8313;49.894;8.084;2022-12-10T02:31:21;7.97;;;5.27;;
16407;SDS011;8313;49.894;8.084;2022-12-10T02:33:53;8.17;;;4.93;;
16407;SDS011;8313;49.894;8.084;2022-12-10T02:36:22;10.53;;;4.83;;
16407;SDS011;8313;49.894;8.084;2022-12-10T02:38:52;9.87;;;5.97;;
16407;SDS011;8313;49.894;8.084;2022-12-10T02:41:26;12.50;;;5.77;;
16407;SDS011;8313;49.894;8.084;2022-12-10T02:43:58;11.17;;;5.67;;
16407;SDS011;8313;49.894;8.084;2022-12-10T02:46:27;11.33;;;6.07;;
16407;SDS011;8313;49.894;8.084;2022-12-10T02:48:55;9.40;;;5.67;;
16407;SDS011;8313;49.894;8.084;2022-12-10T02:51:23;8.83;;;4.97;;
16407;SDS011;8313;49.894;8.084;2022-12-10T02:53:58;9.93;;;5.13;;
16407;SDS011;8313;49.894;8.084;2022-12-10T02:56:36;9.80;;;6.10;;
16407;SDS011;8313;49.894;8.084;2022-12-10T03:04:48;10.47;;;6.60;;
16407;SDS011;8313;49.894;8.084;2022-12-10T03:07:33;8.00;;;5.60;;
16407;SDS011;8313;49.894;8.084;2022-12-10T03:10:21;8.67;;;5.60;;
16407;SDS011;8313;49.894;8.084;2022-12-10T03:12:48;14.93;;;5.50;;
16407;SDS011;8313;49.894;8.084;2022-12-10T03:15:19;10.33;;;6.07;;
16407;SDS011;8313;49.894;8.084;2022-12-10T03:17:47;9.53;;;5.70;;
16407;SDS011;8313;49.894;8.084;2022-12-10T03:20:14;10.90;;;5.80;;
16407;SDS011;8313;49.894;8.084;2022-12-10T03:22:42;9.00;;;4.60;;
16407;SDS011;8313;49.894;8.084;2022-12-10T03:25:12;9.40;;;5.63;;
16407;SDS011;8313;49.894;8.084;2022-12-10T03:27:42;10.30;;;5.23;;
16407;SDS011;8313;49.894;8.084;2022-12-10T03:30:10;9.40;;;5.43;;
16407;SDS011;8313;49.894;8.084;2022-12-10T03:32:36;7.97;;;5.40;;
16407;SDS011;8313;49.894;8.084;2022-12-10T03:35:02;12.77;;;6.80;;
16407;SDS011;8313;49.894;8.084;2022-12-10T03:37:29;9.67;;;5.50;;
16407;SDS011;8313;49.894;8.084;2022-12-10T03:39:56;10.33;;;6.07;;
16407;SDS011;8313;49.894;8.084;2022-12-10T03:42:23;11.03;;;6.00;;
16407;SDS011;8313;49.894;8.084;2022-12-10T03:44:49;9.33;;;5.80;;
16407;SDS011;8313;49.894;8.084;2022-12-10T03:47:16;12.80;;;6.27;;
16407;SDS011;8313;49.894;8.084;2022-12-10T03:49:43;12.10;;;6.70;;
16407;SDS011;8313;49.894;8.084;2022-12-10T03:52:09;11.50;;;5.43;;
16407;SDS011;8313;49.894;8.084;2022-12-10T03:54:36;8.67;;;5.87;;
16407;SDS011;8313;49.894;8.084;2022-12-10T03:57:02;9.60;;;5.17;;
16407;SDS011;8313;49.894;8.084;2022-12-10T03:59:27;11.60;;;7.20;;
16407;SDS011;8313;49.894;8.084;2022-12-10T04:01:56;12.97;;;6.67;;
16407;SDS011;8313;49.894;8.084;2022-12-10T04:04:22;13.60;;;6.90;;
16407;SDS011;8313;49.894;8.084;2022-12-10T04:06:48;12.97;;;7.27;;
16407;SDS011;8313;49.894;8.084;2022-12-10T04:09:14;9.50;;;5.30;;
16407;SDS011;8313;49.894;8.084;2022-12-10T04:11:40;8.90;;;5.33;;
16407;SDS011;8313;49.894;8.084;2022-12-10T04:14:07;7.87;;;5.40;;
16407;SDS011;8313;49.894;8.084;2022-12-10T04:16:53;11.67;;;5.93;;
16407;SDS011;8313;49.894;8.084;2022-12-10T04:19:18;13.63;;;6.70;;
16407;SDS011;8313;49.894;8.084;2022-12-10T04:21:44;9.13;;;5.77;;
16407;SDS011;8313;49.894;8.084;2022-12-10T04:24:30;9.80;;;5.07;;
16407;SDS011;8313;49.894;8.084;2022-12-10T04:27:17;10.60;;;5.60;;
16407;SDS011;8313;49.894;8.084;2022-12-10T04:29:43;8.27;;;4.97;;
16407;SDS011;8313;49.894;8.084;2022-12-10T04:32:09;12.53;;;6.07;;
16407;SDS011;8313;49.894;8.084;2022-12-10T04:34:35;10.37;;;6.23;;
16407;SDS011;8313;49.894;8.084;2022-12-10T04:37:02;12.40;;;6.40;;
16407;SDS011;8313;49.894;8.084;2022-12-10T04:39:28;10.30;;;5.70;;
16407;SDS011;8313;49.894;8.084;2022-12-10T04:41:54;11.00;;;6.33;;
16407;SDS011;8313;49.894;8.084;2022-12-10T04:44:20;11.17;;;5.87;;
16407;SDS011;8313;49.894;8.084;2022-12-10T04:46:47;13.87;;;7.17;;
16407;SDS011;8313;49.894;8.084;2022-12-10T04:49:14;12.37;;;5.30;;
16407;SDS011;8313;49.894;8.084;2022-12-10T04:51:40;12.87;;;6.50;;
16407;SDS011;8313;49.894;8.084;2022-12-10T04:54:06;10.87;;;6.53;;
16407;SDS011;8313;49.894;8.084;2022-12-10T04:56:32;11.83;;;6.40;;
16407;SDS011;8313;49.894;8.084;2022-12-10T04:58:59;10.40;;;6.13;;
16407;SDS011;8313;49.894;8.084;2022-12-10T05:01:25;12.73;;;6.10;;
16407;SDS011;8313;49.894;8.084;2022-12-10T05:03:51;11.37;;;6.57;;
16407;SDS011;8313;49.894;8.084;2022-12-10T05:06:19;9.60;;;6.03;;
16407;SDS011;8313;49.894;8.084;2022-12-10T05:08:45;11.20;;;6.27;;
16407;SDS011;8313;49.894;8.084;2022-12-10T05:11:12;11.80;;;6.73;;
16407;SDS011;8313;49.894;8.084;2022-12-10T05:13:40;7.70;;;4.90;;
16407;SDS011;8313;49.894;8.084;2022-12-10T05:16:07;10.47;;;5.70;;
16407;SDS011;8313;49.894;8.084;2022-12-10T05:18:34;9.10;;;5.57;;
16407;SDS011;8313;49.894;8.084;2022-12-10T05:21:01;7.67;;;4.50;;
16407;SDS011;8313;49.894;8.084;2022-12-10T05:23:28;8.37;;;4.60;;
16407;SDS011;8313;49.894;8.084;2022-12-10T05:26:04;9.70;;;6.03;;
16407;SDS011;8313;49.894;8.084;2022-12-10T05:28:33;11.40;;;5.20;;
16407;SDS011;8313;49.894;8.084;2022-12-10T05:31:01;8.83;;;5.33;;
16407;SDS011;8313;49.894;8.084;2022-12-10T05:33:27;6.30;;;4.57;;
16407;SDS011;8313;49.894;8.084;2022-12-10T05:38:18;9.30;;;5.23;;
16407;SDS011;8313;49.894;8.084;2022-12-10T05:40:44;12.00;;;6.50;;
16407;SDS011;8313;49.894;8.084;2022-12-10T05:43:10;12.10;;;6.63;;
16407;SDS011;8313;49.894;8.084;2022-12-10T05:45:35;8.80;;;5.87;;
16407;SDS011;8313;49.894;8.084;2022-12-10T05:48:01;9.33;;;5.30;;
16407;SDS011;8313;49.894;8.084;2022-12-10T05:50:27;7.57;;;5.23;;
16407;SDS011;8313;49.894;8.084;2022-12-10T05:52:52;7.53;;;4.67;;
16407;SDS011;8313;49.894;8.084;2022-12-10T05:55:19;9.60;;;5.37;;
16407;SDS011;8313;49.894;8.084;2022-12-10T05:57:45;9.60;;;5.73;;
16407;SDS011;8313;49.894;8.084;2022-12-10T06:00:11;9.17;;;6.00;;
16407;SDS011;8313;49.894;8.084;2022-12-10T06:02:39;8.80;;;5.47;;
16407;SDS011;8313;49.894;8.084;2022-12-10T06:05:05;11.23;;;6.20;;
16407;SDS011;8313;49.894;8.084;2022-12-10T06:07:31;7.63;;;4.80;;
16407;SDS011;8313;49.894;8.084;2022-12-10T06:09:57;9.00;;;5.10;;
16407;SDS011;8313;49.894;8.084;2022-12-10T06:12:22;9.50;;;6.10;;
16407;SDS011;8313;49.894;8.084;2022-12-10T06:14:48;12.20;;;6.60;;
16407;SDS011;8313;49.894;8.084;2022-12-10T06:17:14;7.23;;;5.00;;
16407;SDS011;8313;49.894;8.084;2022-12-10T06:19:39;13.13;;;5.90;;
16407;SDS011;8313;49.894;8.084;2022-12-10T06:22:05;8.37;;;5.80;;
16407;SDS011;8313;49.894;8.084;2022-12-10T06:24:31;13.20;;;7.27;;
16407;SDS011;8313;49.894;8.084;2022-12-10T06:26:57;12.17;;;6.57;;
16407;SDS011;8313;49.894;8.084;2022-12-10T06:29:23;12.63;;;7.87;;
16407;SDS011;8313;49.894;8.084;2022-12-10T06:31:48;13.23;;;6.90;;
16407;SDS011;8313;49.894;8.084;2022-12-10T06:34:14;13.23;;;7.50;;
16407;SDS011;8313;49.894;8.084;2022-12-10T06:36:39;9.73;;;6.30;;
16407;SDS011;8313;49.894;8.084;2022-12-10T06:39:05;12.03;;;6.10;;
16407;SDS011;8313;49.894;8.084;2022-12-10T06:41:31;12.37;;;6.20;;
16407;SDS011;8313;49.894;8.084;2022-12-10T06:43:56;13.23;;;6.27;;
16407;SDS011;8313;49.894;8.084;2022-12-10T06:46:25;7.87;;;5.60;;
16407;SDS011;8313;49.894;8.084;2022-12-10T06:48:53;11.57;;;5.57;;
16407;SDS011;8313;49.894;8.084;2022-12-10T06:51:18;9.50;;;5.90;;
16407;SDS011;8313;49.894;8.084;2022-12-10T06:53:44;9.63;;;5.10;;
16407;SDS011;8313;49.894;8.084;2022-12-10T06:56:15;9.37;;;5.97;;
16407;SDS011;8313;49.894;8.084;2022-12-10T06:58:42;14.43;;;7.03;;
16407;SDS011;8313;49.894;8.084;2022-12-10T07:03:36;12.60;;;6.20;;
16407;SDS011;8313;49.894;8.084;2022-12-10T07:06:03;9.30;;;6.33;;
16407;SDS011;8313;49.894;8.084;2022-12-10T07:08:29;13.50;;;6.30;;
16407;SDS011;8313;49.894;8.084;2022-12-10T07:10:55;10.93;;;4.90;;
16407;SDS011;8313;49.894;8.084;2022-12-10T07:13:22;13.90;;;6.60;;
16407;SDS011;8313;49.894;8.084;2022-12-10T07:15:48;11.57;;;6.93;;
16407;SDS011;8313;49.894;8.084;2022-12-10T07:18:14;8.43;;;6.07;;
16407;SDS011;8313;49.894;8.084;2022-12-10T07:20:39;12.07;;;6.17;;
16407;SDS011;8313;49.894;8.084;2022-12-10T07:23:05;13.00;;;6.67;;
16407;SDS011;8313;49.894;8.084;2022-12-10T07:25:31;9.27;;;4.93;;
16407;SDS011;8313;49.894;8.084;2022-12-10T07:27:58;12.80;;;5.97;;
16407;SDS011;8313;49.894;8.084;2022-12-10T07:30:23;8.47;;;5.13;;
16407;SDS011;8313;49.894;8.084;2022-12-10T07:32:49;11.17;;;5.50;;
16407;SDS011;8313;49.894;8.084;2022-12-10T07:35:15;9.80;;;5.30;;
16407;SDS011;8313;49.894;8.084;2022-12-10T07:37:40;8.17;;;5.40;;
16407;SDS011;8313;49.894;8.084;2022-12-10T07:40:06;8.93;;;5.20;;
16407;SDS011;8313;49.894;8.084;2022-12-10T07:42:32;11.97;;;5.40;;
16407;SDS011;8313;49.894;8.084;2022-12-10T07:44:58;9.43;;;5.83;;
16407;SDS011;8313;49.894;8.084;2022-12-10T07:47:24;6.70;;;4.33;;
16407;SDS011;8313;49.894;8.084;2022-12-10T07:49:50;7.40;;;5.00;;
16407;SDS011;8313;49.894;8.084;2022-12-10T07:52:16;7.97;;;5.27;;
16407;SDS011;8313;49.894;8.084;2022-12-10T07:54:41;11.17;;;5.60;;
16407;SDS011;8313;49.894;8.084;2022-12-10T07:57:07;7.17;;;4.13;;
16407;SDS011;8313;49.894;8.084;2022-12-10T07:59:33;9.00;;;5.33;;
16407;SDS011;8313;49.894;8.084;2022-12-10T08:01:59;7.43;;;4.63;;
16407;SDS011;8313;49.894;8.084;2022-12-10T08:04:27;8.83;;;5.23;;
16407;SDS011;8313;49.894;8.084;2022-12-10T08:06:54;8.30;;;5.13;;
16407;SDS011;8313;49.894;8.084;2022-12-10T08:09:20;8.47;;;4.83;;
16407;SDS011;8313;49.894;8.084;2022-12-10T08:11:46;9.27;;;5.60;;
16407;SDS011;8313;49.894;8.084;2022-12-10T08:14:12;8.20;;;5.57;;
16407;SDS011;8313;49.894;8.084;2022-12-10T08:16:37;13.83;;;6.90;;
16407;SDS011;8313;49.894;8.084;2022-12-10T08:19:03;14.60;;;6.60;;
16407;SDS011;8313;49.894;8.084;2022-12-10T08:21:30;10.33;;;7.17;;
16407;SDS011;8313;49.894;8.084;2022-12-10T08:23:57;12.77;;;6.97;;
16407;SDS011;8313;49.894;8.084;2022-12-10T08:26:24;9.67;;;6.50;;
16407;SDS011;8313;49.894;8.084;2022-12-10T08:28:52;14.20;;;5.77;;
16407;SDS011;8313;49.894;8.084;2022-12-10T08:31:20;10.23;;;6.13;;
16407;SDS011;8313;49.894;8.084;2022-12-10T08:33:47;8.70;;;5.23;;
16407;SDS011;8313;49.894;8.084;2022-12-10T08:36:14;9.43;;;5.83;;
16407;SDS011;8313;49.894;8.084;2022-12-10T08:38:41;6.40;;;4.27;;
16407;SDS011;8313;49.894;8.084;2022-12-10T08:41:08;8.93;;;4.70;;
16407;SDS011;8313;49.894;8.084;2022-12-10T08:43:35;9.50;;;5.57;;
16407;SDS011;8313;49.894;8.084;2022-12-10T08:46:02;10.07;;;4.50;;
16407;SDS011;8313;49.894;8.084;2022-12-10T08:48:28;7.47;;;5.13;;
16407;SDS011;8313;49.894;8.084;2022-12-10T08:50:54;6.87;;;3.80;;
16407;SDS011;8313;49.894;8.084;2022-12-10T08:53:20;7.23;;;4.50;;
16407;SDS011;8313;49.894;8.084;2022-12-10T08:55:48;8.73;;;5.33;;
16407;SDS011;8313;49.894;8.084;2022-12-10T08:58:15;10.43;;;5.10;;
16407;SDS011;8313;49.894;8.084;2022-12-10T09:00:41;9.50;;;5.33;;
16407;SDS011;8313;49.894;8.084;2022-12-10T09:03:08;7.87;;;5.77;;
16407;SDS011;8313;49.894;8.084;2022-12-10T09:05:34;8.80;;;4.37;;
16407;SDS011;8313;49.894;8.084;2022-12-10T09:08:00;12.37;;;5.43;;
16407;SDS011;8313;49.894;8.084;2022-12-10T09:10:26;7.50;;;4.60;;
16407;SDS011;8313;49.894;8.084;2022-12-10T09:12:52;8.80;;;4.70;;
16407;SDS011;8313;49.894;8.084;2022-12-10T09:15:18;7.50;;;4.40;;
16407;SDS011;8313;49.894;8.084;2022-12-10T09:17:43;8.17;;;4.23;;
16407;SDS011;8313;49.894;8.084;2022-12-10T09:20:09;7.17;;;3.90;;
16407;SDS011;8313;49.894;8.084;2022-12-10T09:22:35;8.47;;;4.80;;
16407;SDS011;8313;49.894;8.084;2022-12-10T09:25:05;9.13;;;4.90;;
16407;SDS011;8313;49.894;8.084;2022-12-10T09:27:32;8.80;;;5.53;;
16407;SDS011;8313;49.894;8.084;2022-12-10T09:29:58;9.17;;;4.13;;
16407;SDS011;8313;49.894;8.084;2022-12-10T09:32:24;8.60;;;5.00;;
16407;SDS011;8313;49.894;8.084;2022-12-10T09:34:53;12.20;;;5.17;;
16407;SDS011;8313;49.894;8.084;2022-12-10T09:37:19;11.77;;;6.40;;
16407;SDS011;8313;49.894;8.084;2022-12-10T09:39:44;11.47;;;7.47;;
16407;SDS011;8313;49.894;8.084;2022-12-10T09:42:26;9.40;;;6.53;;
16407;SDS011;8313;49.894;8.084;2022-12-10T09:45:02;12.00;;;6.80;;
16407;SDS011;8313;49.894;8.084;2022-12-10T09:47:35;9.23;;;5.63;;
16407;SDS011;8313;49.894;8.084;2022-12-10T09:50:23;6.60;;;4.60;;
16407;SDS011;8313;49.894;8.084;2022-12-10T09:52:57;8.47;;;5.43;;
16407;SDS011;8313;49.894;8.084;2022-12-10T09:55:31;10.10;;;5.30;;
16407;SDS011;8313;49.894;8.084;2022-12-10T09:58:04;9.53;;;5.37;;
16407;SDS011;8313;49.894;8.084;2022-12-10T10:00:37;8.50;;;5.00;;
16407;SDS011;8313;49.894;8.084;2022-12-10T10:03:06;8.53;;;5.30;;
16407;SDS011;8313;49.894;8.084;2022-12-10T10:05:38;7.50;;;5.03;;
16407;SDS011;8313;49.894;8.084;2022-12-10T10:08:11;9.57;;;6.03;;
16407;SDS011;8313;49.894;8.084;2022-12-10T10:10:38;8.40;;;4.83;;
16407;SDS011;8313;49.894;8.084;2022-12-10T10:15:35;8.70;;;5.60;;
16407;SDS011;8313;49.894;8.084;2022-12-10T10:20:55;8.13;;;4.87;;
16407;SDS011;8313;49.894;8.084;2022-12-10T10:23:21;10.10;;;5.37;;
16407;SDS011;8313;49.894;8.084;2022-12-10T10:25:47;9.43;;;4.60;;
16407;SDS011;8313;49.894;8.084;2022-12-10T10:28:14;6.80;;;4.33;;
16407;SDS011;8313;49.894;8.084;2022-12-10T10:30:44;7.23;;;4.60;;
16407;SDS011;8313;49.894;8.084;2022-12-10T10:33:10;13.53;;;7.00;;
16407;SDS011;8313;49.894;8.084;2022-12-10T10:35:42;11.30;;;6.60;;
16407;SDS011;8313;49.894;8.084;2022-12-10T10:38:34;11.47;;;5.80;;
16407;SDS011;8313;49.894;8.084;2022-12-10T10:41:01;11.23;;;7.40;;
16407;SDS011;8313;49.894;8.084;2022-12-10T10:43:32;13.37;;;6.60;;
16407;SDS011;8313;49.894;8.084;2022-12-10T10:46:06;14.00;;;6.77;;
16407;SDS011;8313;49.894;8.084;2022-12-10T10:48:46;10.87;;;6.80;;
16407;SDS011;8313;49.894;8.084;2022-12-10T10:53:44;8.37;;;4.80;;
16407;SDS011;8313;49.894;8.084;2022-12-10T11:01:21;7.17;;;3.57;;
16407;SDS011;8313;49.894;8.084;2022-12-10T11:03:53;5.27;;;3.87;;
16407;SDS011;8313;49.894;8.084;2022-12-10T11:06:31;6.43;;;3.67;;
16407;SDS011;8313;49.894;8.084;2022-12-10T11:08:57;9.30;;;4.63;;
16407;SDS011;8313;49.894;8.084;2022-12-10T11:11:36;7.00;;;4.23;;
16407;SDS011;8313;49.894;8.084;2022-12-10T11:16:40;7.17;;;3.93;;
16407;SDS011;8313;49.894;8.084;2022-12-10T11:19:07;8.17;;;4.70;;
16407;SDS011;8313;49.894;8.084;2022-12-10T11:21:44;6.80;;;4.47;;
16407;SDS011;8313;49.894;8.084;2022-12-10T11:24:10;6.63;;;4.87;;
16407;SDS011;8313;49.894;8.084;2022-12-10T11:37:42;7.10;;;4.40;;
16407;SDS011;8313;49.894;8.084;2022-12-10T11:45:52;9.47;;;4.90;;
16407;SDS011;8313;49.894;8.084;2022-12-10T11:48:55;8.67;;;4.93;;
16407;SDS011;8313;49.894;8.084;2022-12-10T11:54:00;17.67;;;9.47;;
16407;SDS011;8313;49.894;8.084;2022-12-10T11:56:48;14.40;;;7.57;;
16407;SDS011;8313;49.894;8.084;2022-12-10T11:59:41;13.20;;;8.10;;
16407;SDS011;8313;49.894;8.084;2022-12-10T12:02:34;20.27;;;9.50;;
16407;SDS011;8313;49.894;8.084;2022-12-10T12:13:13;14.90;;;8.90;;
16407;SDS011;8313;49.894;8.084;2022-12-10T12:16:23;16.83;;;9.20;;
16407;SDS011;8313;49.894;8.084;2022-12-10T12:21:25;9.53;;;5.50;;
16407;SDS011;8313;49.894;8.084;2022-12-10T12:23:55;12.93;;;7.60;;
16407;SDS011;8313;49.894;8.084;2022-12-10T12:26:32;13.10;;;7.67;;
16407;SDS011;8313;49.894;8.084;2022-12-10T12:29:23;6.50;;;4.67;;
16407;SDS011;8313;49.894;8.084;2022-12-10T12:35:06;8.30;;;4.93;;
16407;SDS011;8313;49.894;8.084;2022-12-10T12:37:39;8.30;;;4.97;;
16407;SDS011;8313;49.894;8.084;2022-12-10T12:40:15;8.23;;;4.23;;
16407;SDS011;8313;49.894;8.084;2022-12-10T12:42:47;7.57;;;4.30;;
16407;SDS011;8313;49.894;8.084;2022-12-10T12:45:20;6.50;;;4.60;;
16407;SDS011;8313;49.894;8.084;2022-12-10T12:53:19;7.40;;;4.83;;
16407;SDS011;8313;49.894;8.084;2022-12-10T12:58:24;6.40;;;4.47;;
16407;SDS011;8313;49.894;8.084;2022-12-10T13:00:58;7.27;;;3.87;;
16407;SDS011;8313;49.894;8.084;2022-12-10T13:03:38;4.93;;;3.57;;
16407;SDS011;8313;49.894;8.084;2022-12-10T13:06:13;7.77;;;4.13;;
16407;SDS011;8313;49.894;8.084;2022-12-10T13:12:31;5.60;;;4.07;;
16407;SDS011;8313;49.894;8.084;2022-12-10T13:20:30;8.80;;;4.93;;
16407;SDS011;8313;49.894;8.084;2022-12-10T13:23:01;6.77;;;4.30;;
16407;SDS011;8313;49.894;8.084;2022-12-10T13:28:16;5.57;;;4.27;;
16407;SDS011;8313;49.894;8.084;2022-12-10T13:30:47;9.50;;;5.27;;
16407;SDS011;8313;49.894;8.084;2022-12-10T13:33:45;7.00;;;4.47;;
16407;SDS011;8313;49.894;8.084;2022-12-10T13:44:50;7.00;;;4.90;;
16407;SDS011;8313;49.894;8.084;2022-12-10T13:47:37;9.40;;;5.87;;
16407;SDS011;8313;49.894;8.084;2022-12-10T14:04:39;6.73;;;4.20;;
16407;SDS011;8313;49.894;8.084;2022-12-10T14:07:11;7.10;;;5.20;;
16407;SDS011;8313;49.894;8.084;2022-12-10T14:09:42;8.33;;;5.13;;
16407;SDS011;8313;49.894;8.084;2022-12-10T14:15:01;10.87;;;5.30;;
16407;SDS011;8313;49.894;8.084;2022-12-10T14:17:34;12.90;;;6.43;;
16407;SDS011;8313;49.894;8.084;2022-12-10T14:20:04;7.83;;;5.83;;
16407;SDS011;8313;49.894;8.084;2022-12-10T14:22:45;8.53;;;5.00;;
16407;SDS011;8313;49.894;8.084;2022-12-10T14:25:13;8.40;;;5.30;;
16407;SDS011;8313;49.894;8.084;2022-12-10T14:27:46;7.13;;;4.53;;
16407;SDS011;8313;49.894;8.084;2022-12-10T14:32:40;9.10;;;5.73;;
16407;SDS011;8313;49.894;8.084;2022-12-10T14:35:24;10.80;;;6.80;;
16407;SDS011;8313;49.894;8.084;2022-12-10T14:37:52;10.67;;;5.70;;
16407;SDS011;8313;49.894;8.084;2022-12-10T14:40:22;14.40;;;5.77;;
16407;SDS011;8313;49.894;8.084;2022-12-10T14:43:03;11.23;;;6.37;;
16407;SDS011;8313;49.894;8.084;2022-12-10T14:48:25;12.03;;;5.83;;
16407;SDS011;8313;49.894;8.084;2022-12-10T14:50:52;9.27;;;6.00;;
16407;SDS011;8313;49.894;8.084;2022-12-10T14:53:27;11.07;;;7.03;;
16407;SDS011;8313;49.894;8.084;2022-12-10T14:55:54;10.20;;;6.23;;
16407;SDS011;8313;49.894;8.084;2022-12-10T15:00:50;9.33;;;5.70;;
16407;SDS011;8313;49.894;8.084;2022-12-10T15:03:21;8.47;;;5.40;;
16407;SDS011;8313;49.894;8.084;2022-12-10T15:05:56;12.40;;;6.40;;
16407;SDS011;8313;49.894;8.084;2022-12-10T15:08:24;7.83;;;5.07;;
16407;SDS011;8313;49.894;8.084;2022-12-10T15:10:52;8.33;;;5.80;;
16407;SDS011;8313;49.894;8.084;2022-12-10T15:13:28;7.97;;;4.80;;
16407;SDS011;8313;49.894;8.084;2022-12-10T15:16:05;9.57;;;4.87;;
16407;SDS011;8313;49.894;8.084;2022-12-10T15:18:39;10.67;;;5.70;;
16407;SDS011;8313;49.894;8.084;2022-12-10T15:23:47;9.20;;;5.53;;
16407;SDS011;8313;49.894;8.084;2022-12-10T15:26:20;10.40;;;6.20;;
16407;SDS011;8313;49.894;8.084;2022-12-10T15:28:51;8.57;;;5.00;;
16407;SDS011;8313;49.894;8.084;2022-12-10T15:31:37;9.47;;;5.67;;
16407;SDS011;8313;49.894;8.084;2022-12-10T15:34:08;9.10;;;5.13;;
16407;SDS011;8313;49.894;8.084;2022-12-10T15:39:37;10.40;;;5.50;;
16407;SDS011;8313;49.894;8.084;2022-12-10T15:45:12;8.40;;;5.40;;
16407;SDS011;8313;49.894;8.084;2022-12-10T15:47:40;12.93;;;6.00;;
16407;SDS011;8313;49.894;8.084;2022-12-10T15:50:06;10.63;;;5.87;;
16407;SDS011;8313;49.894;8.084;2022-12-10T15:52:33;11.33;;;7.00;;
16407;SDS011;8313;49.894;8.084;2022-12-10T15:54:59;12.50;;;6.80;;
16407;SDS011;8313;49.894;8.084;2022-12-10T15:57:26;11.60;;;6.40;;
16407;SDS011;8313;49.894;8.084;2022-12-10T15:59:53;13.20;;;7.07;;
16407;SDS011;8313;49.894;8.084;2022-12-10T16:04:46;12.50;;;7.00;;
16407;SDS011;8313;49.894;8.084;2022-12-10T16:07:12;12.50;;;7.57;;
16407;SDS011;8313;49.894;8.084;2022-12-10T16:09:40;12.77;;;8.07;;
16407;SDS011;8313;49.894;8.084;2022-12-10T16:12:07;12.30;;;6.63;;
16407;SDS011;8313;49.894;8.084;2022-12-10T16:14:38;21.63;;;11.40;;
16407;SDS011;8313;49.894;8.084;2022-12-10T16:17:13;18.13;;;10.67;;
16407;SDS011;8313;49.894;8.084;2022-12-10T16:19:38;16.03;;;8.57;;
16407;SDS011;8313;49.894;8.084;2022-12-10T16:22:04;16.90;;;9.53;;
16407;SDS011;8313;49.894;8.084;2022-12-10T16:24:30;14.53;;;7.80;;
16407;SDS011;8313;49.894;8.084;2022-12-10T16:26:56;15.23;;;8.10;;
16407;SDS011;8313;49.894;8.084;2022-12-10T16:29:22;11.97;;;6.60;;
16407;SDS011;8313;49.894;8.084;2022-12-10T16:31:48;15.23;;;7.73;;
16407;SDS011;8313;49.894;8.084;2022-12-10T16:34:14;13.10;;;7.43;;
16407;SDS011;8313;49.894;8.084;2022-12-10T16:36:40;14.70;;;7.00;;
16407;SDS011;8313;49.894;8.084;2022-12-10T16:39:06;14.10;;;6.43;;
16407;SDS011;8313;49.894;8.084;2022-12-10T16:41:32;11.70;;;6.93;;
16407;SDS011;8313;49.894;8.084;2022-12-10T16:43:57;11.00;;;7.30;;
16407;SDS011;8313;49.894;8.084;2022-12-10T16:46:23;11.80;;;7.23;;
16407;SDS011;8313;49.894;8.084;2022-12-10T16:48:49;13.43;;;7.67;;
16407;SDS011;8313;49.894;8.084;2022-12-10T16:51:24;12.30;;;7.17;;
16407;SDS011;8313;49.894;8.084;2022-12-10T16:53:54;11.17;;;6.17;;
16407;SDS011;8313;49.894;8.084;2022-12-10T16:56:21;11.90;;;6.07;;
16407;SDS011;8313;49.894;8.084;2022-12-10T16:58:46;15.87;;;9.33;;
16407;SDS011;8313;49.894;8.084;2022-12-10T17:01:20;15.87;;;8.63;;
16407;SDS011;8313;49.894;8.084;2022-12-10T17:03:48;18.30;;;9.10;;
16407;SDS011;8313;49.894;8.084;2022-12-10T17:06:15;15.00;;;8.73;;
16407;SDS011;8313;49.894;8.084;2022-12-10T17:08:41;13.30;;;8.20;;
16407;SDS011;8313;49.894;8.084;2022-12-10T17:11:14;12.27;;;7.33;;
16407;SDS011;8313;49.894;8.084;2022-12-10T17:13:59;16.00;;;8.33;;
16407;SDS011;8313;49.894;8.084;2022-12-10T17:16:25;15.20;;;9.37;;
16407;SDS011;8313;49.894;8.084;2022-12-10T17:18:50;11.87;;;6.73;;
16407;SDS011;8313;49.894;8.084;2022-12-10T17:21:16;11.60;;;6.80;;
16407;SDS011;8313;49.894;8.084;2022-12-10T17:23:42;12.60;;;6.30;;
16407;SDS011;8313;49.894;8.084;2022-12-10T17:26:09;12.60;;;7.03;;
16407;SDS011;8313;49.894;8.084;2022-12-10T17:28:53;13.60;;;7.53;;
16407;SDS011;8313;49.894;8.084;2022-12-10T17:31:23;18.23;;;8.17;;
16407;SDS011;8313;49.894;8.084;2022-12-10T17:33:49;12.87;;;8.23;;